createdAt,value
2018-09-15T00:00:13.879Z,7
2018-09-15T00:10:18.953Z,5
2018-09-15T00:20:24.238Z,6
2018-09-15T00:30:27.707Z,5
2018-09-15T00:40:33.299Z,7
2018-09-15T00:50:38.445Z,6
2018-09-15T01:00:42.446Z,6
2018-09-15T01:10:47.722Z,8
2018-09-15T01:20:51.768Z,8
2018-09-15T01:30:56.218Z,9
2018-09-15T01:41:00.676Z,7
2018-09-15T01:51:05.401Z,10
2018-09-15T02:01:08.665Z,9
2018-09-15T02:11:10.893Z,8
2018-09-15T02:21:16.178Z,9
2018-09-15T02:31:20.461Z,7
2018-09-15T02:41:26.551Z,8
2018-09-15T02:51:32.142Z,9
2018-09-15T03:01:38.095Z,8
2018-09-15T03:11:43.868Z,8
2018-09-15T03:21:50.283Z,8
2018-09-15T03:31:55.974Z,6
2018-09-15T03:42:00.527Z,1
2018-09-15T03:52:04.719Z,9
2018-09-15T04:02:08.485Z,7
2018-09-15T04:12:13.926Z,7
2018-09-15T04:22:19.053Z,10
2018-09-15T04:32:22.778Z,10
2018-09-15T04:42:27.342Z,9
2018-09-15T04:52:32.532Z,12
2018-09-15T05:02:37.405Z,8
2018-09-15T05:12:43.925Z,7
2018-09-15T05:22:47.888Z,8
2018-09-15T05:32:53.778Z,8
2018-09-15T05:42:57.676Z,13
2018-09-15T05:53:02.963Z,19
2018-09-15T06:03:07.757Z,18
2018-09-15T06:13:14.172Z,20
2018-09-15T06:23:18.626Z,11
2018-09-15T06:33:23.004Z,11
2018-09-15T06:43:28.077Z,11
2018-09-15T06:53:31.118Z,14
2018-09-15T07:03:36.287Z,14
2018-09-15T07:13:41.184Z,15
2018-09-15T07:23:46.239Z,14
2018-09-15T07:33:50.530Z,14
2018-09-15T07:43:55.899Z,16
2018-09-15T07:54:00.184Z,16
2018-09-15T08:04:05.449Z,17
2018-09-15T08:14:10.224Z,18
2018-09-15T08:24:15.235Z,18
2018-09-15T08:34:20.573Z,19
2018-09-15T08:44:25.021Z,20
2018-09-15T08:54:29.122Z,22
2018-09-15T09:04:34.325Z,32
2018-09-15T09:14:40.101Z,35
2018-09-15T09:24:44.702Z,35
2018-09-15T09:34:50.036Z,34
2018-09-15T09:44:54.833Z,32
2018-09-15T09:54:59.435Z,29
2018-09-15T10:05:03.118Z,22
2018-09-15T10:15:05.822Z,21
2018-09-15T10:25:12.005Z,31
2018-09-15T10:35:18.804Z,31
2018-09-15T10:45:21.252Z,29
2018-09-15T10:55:26.857Z,24
2018-09-15T11:05:31.208Z,24
2018-09-15T11:15:35.389Z,23
2018-09-15T11:25:40.211Z,22
2018-09-15T11:35:44.919Z,22
2018-09-15T11:45:51.006Z,29
2018-09-15T11:55:53.271Z,31
2018-09-15T12:05:59.431Z,36
2018-09-15T12:16:07.688Z,23
2018-09-15T12:26:08.463Z,21
2018-09-15T12:36:13.692Z,24
2018-09-15T12:46:17.528Z,20
2018-09-15T12:56:21.885Z,19
2018-09-15T13:06:26.941Z,24
2018-09-15T13:16:30.533Z,27
2018-09-15T13:26:34.346Z,27
2018-09-15T13:36:38.371Z,30
2018-09-15T13:46:44.066Z,32
2018-09-15T13:56:48.708Z,22
2018-09-15T14:06:53.874Z,19
2018-09-15T14:16:59.716Z,25
2018-09-15T14:27:02.354Z,37
2018-09-15T14:37:07.816Z,53
2018-09-15T14:47:11.261Z,42
2018-09-15T14:57:14.506Z,40
2018-09-15T15:07:19.161Z,80
2018-09-15T15:17:24.187Z,50
2018-09-15T15:27:28.503Z,30
2018-09-15T15:37:32.939Z,42
2018-09-15T15:47:36.467Z,67
2018-09-15T15:57:42.738Z,79
2018-09-15T16:07:46.842Z,82
2018-09-15T16:17:52.677Z,66
2018-09-15T16:27:55.737Z,69
2018-09-15T16:38:01.421Z,33
2018-09-15T16:48:05.234Z,24
2018-09-15T16:58:09.276Z,30
2018-09-15T17:08:13.628Z,21
2018-09-15T17:18:17.558Z,19
2018-09-15T17:28:20.468Z,20
2018-09-15T17:38:24.707Z,20
2018-09-15T17:48:30.687Z,20
2018-09-15T17:58:35.648Z,19
2018-09-15T18:08:39.885Z,20
2018-09-15T18:18:45.856Z,27
2018-09-15T18:28:52.373Z,21
2018-09-15T18:38:57.625Z,21
2018-09-15T18:49:02.188Z,23
2018-09-15T18:59:06.656Z,20
2018-09-15T19:09:12.117Z,19
2018-09-15T19:19:16.495Z,20
2018-09-15T19:29:20.411Z,20
2018-09-15T19:39:24.183Z,23
2018-09-15T19:49:27.358Z,24
2018-09-15T19:59:31.094Z,29
2018-09-15T20:09:36.126Z,27
2018-09-15T20:19:41.987Z,22
2018-09-15T20:29:46.273Z,22
2018-09-15T20:39:51.924Z,20
2018-09-15T20:49:56.659Z,19
2018-09-15T21:00:00.759Z,20
2018-09-15T21:10:06.596Z,19
2018-09-15T21:20:11.600Z,18
2018-09-15T21:30:14.935Z,23
2018-09-15T21:40:19.165Z,23
2018-09-15T21:50:22.059Z,22
2018-09-15T22:00:27.058Z,21
2018-09-15T22:10:31.208Z,22
2018-09-15T22:20:35.597Z,18
2018-09-15T22:30:40.815Z,21
2018-09-15T22:40:44.293Z,18
2018-09-15T22:50:48.187Z,21
2018-09-15T23:00:53.749Z,19
2018-09-15T23:10:59.199Z,19
2018-09-15T23:21:04.585Z,20
2018-09-15T23:31:09.571Z,20
2018-09-15T23:41:13.134Z,22
2018-09-15T23:51:18.140Z,19
